createdAt,value
2022-12-05T00:02:04.326Z,18.42
2022-12-05T00:04:32.758Z,16.80
2022-12-05T00:07:01.458Z,18.27
2022-12-05T00:09:29.527Z,18.17
2022-12-05T00:11:59.073Z,16.15
2022-12-05T00:14:27.262Z,16.20
2022-12-05T00:16:56.906Z,14.25
2022-12-05T00:19:25.098Z,14.85
2022-12-05T00:21:53.763Z,16.17
2022-12-05T00:24:21.959Z,15.30
2022-12-05T00:26:51.719Z,15.65
2022-12-05T00:29:19.849Z,18.63
2022-12-05T00:31:49.766Z,16.48
2022-12-05T00:34:18.015Z,17.88
2022-12-05T00:36:46.472Z,17.30
2022-12-05T00:39:15.716Z,17.60
2022-12-05T00:41:44.093Z,17.30
2022-12-05T00:44:13.652Z,16.50
2022-12-05T00:46:42.976Z,15.98
2022-12-05T00:49:12.150Z,15.50
2022-12-05T00:51:43.500Z,14.43
2022-12-05T00:54:15.203Z,14.30
2022-12-05T00:56:45.528Z,14.60
2022-12-05T00:59:17.248Z,14.73
2022-12-05T01:01:47.682Z,13.65
2022-12-05T01:04:18.702Z,13.98
2022-12-05T01:06:48.411Z,13.85
2022-12-05T01:09:20.568Z,16.40
2022-12-05T01:11:52.168Z,14.95
2022-12-05T01:14:23.408Z,13.07
2022-12-05T01:16:54.864Z,13.88
2022-12-05T01:19:29.326Z,14.40
2022-12-05T01:21:58.814Z,13.88
2022-12-05T01:24:30.000Z,13.38
2022-12-05T01:26:58.576Z,13.23
2022-12-05T01:29:28.127Z,14.18
2022-12-05T01:31:58.029Z,11.45
2022-12-05T01:34:26.315Z,11.82
2022-12-05T01:36:54.923Z,11.88
2022-12-05T01:39:23.125Z,10.98
2022-12-05T01:41:51.694Z,9.82
2022-12-05T01:44:19.695Z,10.32
2022-12-05T01:46:52.028Z,9.18
2022-12-05T01:49:23.443Z,9.85
2022-12-05T01:51:59.395Z,10.40
2022-12-05T01:54:29.536Z,8.93
2022-12-05T01:57:03.162Z,9.02
2022-12-05T01:59:34.887Z,8.57
2022-12-05T02:02:05.323Z,8.90
2022-12-05T02:04:39.145Z,8.30
2022-12-05T02:07:07.675Z,8.02
2022-12-05T02:09:36.836Z,9.25
2022-12-05T02:12:05.484Z,8.40
2022-12-05T02:14:50.907Z,9.43
2022-12-05T02:17:25.349Z,9.25
2022-12-05T02:20:22.273Z,9.15
2022-12-05T02:23:26.642Z,9.75
2022-12-05T02:26:39.416Z,9.30
2022-12-05T02:29:19.935Z,9.35
2022-12-05T02:32:06.204Z,9.95
2022-12-05T02:34:37.187Z,10.07
2022-12-05T02:37:22.347Z,10.65
2022-12-05T02:40:03.466Z,10.70
2022-12-05T02:42:56.069Z,10.77
2022-12-05T02:45:29.143Z,11.63
2022-12-05T02:47:59.503Z,11.55
2022-12-05T02:50:34.837Z,11.05
2022-12-05T02:53:09.606Z,11.15
2022-12-05T02:55:41.209Z,11.25
2022-12-05T02:58:16.028Z,12.07
2022-12-05T03:00:48.228Z,11.45
2022-12-05T03:03:19.764Z,12.38
2022-12-05T03:06:09.743Z,11.48
2022-12-05T03:08:45.288Z,12.32
2022-12-05T03:11:15.884Z,11.93
2022-12-05T03:13:52.161Z,11.70
2022-12-05T03:16:26.036Z,10.93
2022-12-05T03:19:11.611Z,10.48
2022-12-05T03:21:50.376Z,10.32
2022-12-05T03:24:18.838Z,11.93
2022-12-05T03:27:03.566Z,10.75
2022-12-05T03:29:39.117Z,11.35
2022-12-05T03:32:23.351Z,10.82
2022-12-05T03:35:03.607Z,11.18
2022-12-05T03:37:42.657Z,9.68
2022-12-05T03:40:40.530Z,9.75
2022-12-05T03:43:28.290Z,9.57
2022-12-05T03:46:23.079Z,9.95
2022-12-05T03:48:58.609Z,9.57
2022-12-05T03:51:33.714Z,9.48
2022-12-05T03:54:31.127Z,10.52
2022-12-05T03:57:12.248Z,10.65
2022-12-05T03:59:51.121Z,8.90
2022-12-05T04:02:30.627Z,10.63
2022-12-05T04:05:10.321Z,10.73
2022-12-05T04:07:40.743Z,10.27
2022-12-05T04:10:19.350Z,9.77
2022-12-05T04:12:49.507Z,9.60
2022-12-05T04:15:24.427Z,10.70
2022-12-05T04:17:58.598Z,9.23
2022-12-05T04:21:07.857Z,10.77
2022-12-05T04:23:36.376Z,8.98
2022-12-05T04:26:23.347Z,9.13
2022-12-05T04:29:20.640Z,9.65
2022-12-05T04:31:53.187Z,9.40
2022-12-05T04:34:23.067Z,8.77
2022-12-05T04:37:05.821Z,9.55
2022-12-05T04:39:45.246Z,9.35
2022-12-05T04:42:21.216Z,8.85
2022-12-05T04:44:53.429Z,8.80
2022-12-05T04:47:27.494Z,9.60
2022-12-05T04:52:26.120Z,8.98
2022-12-05T04:55:13.779Z,7.55
2022-12-05T04:58:03.560Z,8.07
2022-12-05T05:00:35.963Z,8.48
2022-12-05T05:03:12.519Z,8.13
2022-12-05T05:05:44.691Z,8.45
2022-12-05T05:08:19.061Z,7.65
2022-12-05T05:11:04.704Z,7.45
2022-12-05T05:13:33.123Z,8.32
2022-12-05T05:16:01.277Z,8.88
2022-12-05T05:18:29.686Z,8.73
2022-12-05T05:20:58.182Z,9.20
2022-12-05T05:23:26.630Z,9.40
2022-12-05T05:25:56.213Z,8.85
2022-12-05T05:28:24.605Z,9.05
2022-12-05T05:30:52.669Z,10.02
2022-12-05T05:33:21.141Z,9.50
2022-12-05T05:35:49.196Z,9.00
2022-12-05T05:38:17.571Z,9.30
2022-12-05T05:40:45.597Z,9.07
2022-12-05T05:43:13.892Z,8.35
2022-12-05T05:45:41.952Z,8.70
2022-12-05T05:48:10.333Z,8.57
2022-12-05T05:50:38.494Z,8.48
2022-12-05T05:53:12.771Z,7.85
2022-12-05T05:55:41.475Z,7.65
2022-12-05T05:58:10.014Z,7.90
2022-12-05T06:00:38.193Z,7.53
2022-12-05T06:03:07.624Z,7.65
2022-12-05T06:05:35.742Z,8.57
2022-12-05T06:08:04.563Z,8.23
2022-12-05T06:10:32.721Z,8.02
2022-12-05T06:13:02.193Z,8.95
2022-12-05T06:15:30.341Z,7.85
2022-12-05T06:17:59.368Z,8.80
2022-12-05T06:20:27.396Z,8.45
2022-12-05T06:22:56.925Z,8.20
2022-12-05T06:25:25.160Z,7.97
2022-12-05T06:27:53.430Z,7.55
2022-12-05T06:30:21.471Z,7.18
2022-12-05T06:32:50.469Z,7.55
2022-12-05T06:35:18.504Z,7.38
2022-12-05T06:37:48.173Z,7.78
2022-12-05T06:40:16.412Z,6.85
2022-12-05T06:42:44.916Z,6.70
2022-12-05T06:45:13.546Z,7.32
2022-12-05T06:47:42.073Z,7.03
2022-12-05T06:50:10.595Z,7.25
2022-12-05T06:52:39.219Z,6.93
2022-12-05T06:55:07.723Z,6.85
2022-12-05T06:57:36.162Z,8.07
2022-12-05T07:00:24.543Z,6.72
2022-12-05T07:02:54.221Z,6.93
2022-12-05T07:05:22.353Z,7.47
2022-12-05T07:07:51.046Z,8.27
2022-12-05T07:10:19.691Z,7.53
2022-12-05T07:12:48.081Z,6.90
2022-12-05T07:15:16.193Z,7.10
2022-12-05T07:17:44.461Z,6.38
2022-12-05T07:20:13.150Z,7.00
2022-12-05T07:22:41.491Z,7.47
2022-12-05T07:25:10.002Z,7.43
2022-12-05T07:27:39.652Z,10.02
2022-12-05T07:30:08.502Z,8.38
2022-12-05T07:32:38.093Z,8.20
2022-12-05T07:35:06.490Z,7.72
2022-12-05T07:37:34.883Z,8.23
2022-12-05T07:40:02.952Z,8.35
2022-12-05T07:42:31.385Z,8.38
2022-12-05T07:44:59.481Z,8.35
2022-12-05T07:47:31.196Z,8.23
2022-12-05T07:49:59.490Z,7.07
2022-12-05T07:52:29.084Z,7.82
2022-12-05T07:54:57.170Z,7.53
2022-12-05T07:57:25.653Z,7.85
2022-12-05T07:59:53.721Z,8.38
2022-12-05T08:02:22.225Z,7.50
2022-12-05T08:04:51.282Z,7.60
2022-12-05T08:07:19.602Z,7.30
2022-12-05T08:09:47.660Z,7.03
2022-12-05T08:12:17.501Z,7.13
2022-12-05T08:14:45.641Z,7.28
2022-12-05T08:17:13.967Z,7.47
2022-12-05T08:19:42.041Z,6.95
2022-12-05T08:22:10.405Z,7.78
2022-12-05T08:24:38.645Z,6.85
2022-12-05T08:27:07.240Z,7.32
2022-12-05T08:29:35.306Z,7.55
2022-12-05T08:32:04.149Z,7.80
2022-12-05T08:34:32.217Z,7.22
2022-12-05T08:37:00.596Z,7.45
2022-12-05T08:39:30.640Z,7.43
2022-12-05T08:42:03.840Z,7.00
2022-12-05T08:44:32.010Z,7.40
2022-12-05T08:47:00.603Z,7.35
2022-12-05T08:49:28.641Z,6.05
2022-12-05T08:51:57.091Z,6.80
2022-12-05T08:54:25.262Z,5.65
2022-12-05T08:56:53.765Z,5.38
2022-12-05T08:59:22.638Z,5.63
2022-12-05T09:01:51.555Z,5.05
2022-12-05T09:04:19.704Z,4.53
2022-12-05T09:06:48.004Z,3.92
2022-12-05T09:09:16.792Z,6.20
2022-12-05T09:11:51.217Z,5.70
2022-12-05T09:14:19.545Z,5.30
2022-12-05T09:16:48.415Z,7.70
2022-12-05T09:19:21.035Z,6.25
2022-12-05T09:21:49.712Z,7.32
2022-12-05T09:24:17.691Z,6.75
2022-12-05T09:26:46.881Z,7.38
2022-12-05T09:29:17.821Z,7.40
2022-12-05T09:31:48.951Z,6.30
2022-12-05T09:34:18.781Z,7.38
2022-12-05T09:37:05.672Z,7.55
2022-12-05T09:39:40.112Z,7.80
2022-12-05T09:42:19.012Z,8.18
2022-12-05T09:44:47.025Z,8.02
2022-12-05T09:47:29.038Z,8.23
2022-12-05T09:50:13.897Z,7.65
2022-12-05T09:52:58.593Z,7.75
2022-12-05T09:55:35.773Z,7.78
2022-12-05T09:58:12.723Z,8.30
2022-12-05T10:00:41.462Z,8.52
2022-12-05T10:03:19.792Z,8.70
2022-12-05T10:05:56.983Z,8.82
2022-12-05T10:08:52.633Z,9.85
2022-12-05T10:12:06.926Z,9.98
2022-12-05T10:14:53.941Z,8.77
2022-12-05T10:17:27.031Z,8.43
2022-12-05T10:20:00.912Z,7.82
2022-12-05T10:22:30.911Z,9.35
2022-12-05T10:25:06.978Z,8.82
2022-12-05T10:27:41.393Z,7.43
2022-12-05T10:30:15.027Z,7.93
2022-12-05T10:32:48.971Z,8.18
2022-12-05T10:35:20.271Z,9.48
2022-12-05T10:37:52.877Z,8.95
2022-12-05T10:40:22.025Z,8.73
2022-12-05T10:42:51.008Z,8.65
2022-12-05T10:45:22.810Z,7.97
2022-12-05T10:47:55.671Z,8.18
2022-12-05T10:50:24.231Z,12.32
2022-12-05T10:52:54.268Z,8.82
2022-12-05T10:55:30.358Z,9.32
2022-12-05T10:58:24.212Z,9.30
2022-12-05T11:01:00.300Z,9.10
2022-12-05T11:03:28.471Z,8.82
2022-12-05T11:06:00.192Z,9.82
2022-12-05T11:09:02.684Z,9.15
2022-12-05T11:11:28.926Z,8.90
2022-12-05T11:14:06.602Z,8.35
2022-12-05T11:16:38.709Z,7.50
2022-12-05T11:19:21.835Z,6.65
2022-12-05T11:21:51.153Z,7.38
2022-12-05T11:24:23.612Z,7.15
2022-12-05T11:26:52.395Z,6.53
2022-12-05T11:29:32.989Z,6.05
2022-12-05T11:32:02.531Z,6.03
2022-12-05T11:34:47.865Z,6.55
2022-12-05T11:37:25.222Z,6.45
2022-12-05T11:39:53.392Z,7.20
2022-12-05T11:42:51.183Z,6.88
2022-12-05T11:45:34.555Z,7.55
2022-12-05T11:48:45.932Z,7.13
2022-12-05T11:51:38.741Z,6.82
2022-12-05T11:56:45.602Z,5.90
2022-12-05T11:59:39.822Z,6.45
2022-12-05T12:02:55.757Z,4.88
2022-12-05T12:05:37.759Z,4.35
2022-12-05T12:08:09.087Z,3.08
2022-12-05T12:11:16.602Z,3.33
2022-12-05T12:14:00.651Z,3.63
2022-12-05T12:16:29.181Z,4.72
2022-12-05T12:19:35.334Z,8.05
2022-12-05T12:22:28.279Z,5.15
2022-12-05T12:25:06.336Z,3.65
2022-12-05T12:27:59.940Z,2.60
2022-12-05T12:30:33.813Z,2.38
2022-12-05T12:33:14.273Z,3.97
2022-12-05T12:35:46.252Z,2.25
2022-12-05T12:38:22.380Z,1.88
2022-12-05T12:41:08.534Z,1.40
2022-12-05T12:44:10.848Z,2.65
2022-12-05T12:46:41.585Z,2.63
2022-12-05T12:49:37.646Z,1.48
2022-12-05T12:52:18.648Z,1.27
2022-12-05T12:55:27.678Z,1.52
2022-12-05T12:58:21.730Z,1.10
2022-12-05T13:01:11.818Z,1.75
2022-12-05T13:03:51.551Z,1.63
2022-12-05T13:06:28.974Z,1.60
2022-12-05T13:09:02.570Z,1.50
2022-12-05T13:11:38.465Z,1.50
2022-12-05T13:14:15.406Z,1.80
2022-12-05T13:16:50.771Z,1.48
2022-12-05T13:19:28.035Z,2.33
2022-12-05T13:21:58.754Z,2.50
2022-12-05T13:24:29.286Z,2.47
2022-12-05T13:27:15.286Z,2.95
2022-12-05T13:30:09.389Z,1.88
2022-12-05T13:32:43.047Z,2.15
2022-12-05T13:35:45.801Z,2.60
2022-12-05T13:38:41.236Z,2.30
2022-12-05T13:41:28.109Z,2.67
2022-12-05T13:44:06.442Z,3.45
2022-12-05T13:46:39.126Z,3.55
2022-12-05T13:49:17.731Z,5.07
2022-12-05T13:51:47.332Z,2.90
2022-12-05T13:54:24.744Z,2.25
2022-12-05T13:56:59.480Z,3.03
2022-12-05T14:00:22.021Z,2.88
2022-12-05T14:02:55.926Z,2.88
2022-12-05T14:05:28.577Z,3.45
2022-12-05T14:08:03.632Z,2.97
2022-12-05T14:10:33.205Z,2.90
2022-12-05T14:13:24.167Z,2.75
2022-12-05T14:15:54.987Z,2.55
2022-12-05T14:18:42.078Z,4.05
2022-12-05T14:21:35.878Z,3.33
2022-12-05T14:24:19.837Z,2.33
2022-12-05T14:27:12.850Z,2.55
2022-12-05T14:30:02.643Z,3.42
2022-12-05T14:32:42.788Z,2.80
2022-12-05T14:35:24.916Z,3.15
2022-12-05T14:38:03.359Z,3.20
2022-12-05T14:40:38.587Z,3.85
2022-12-05T14:43:21.765Z,4.00
2022-12-05T14:45:52.673Z,6.68
2022-12-05T14:48:21.129Z,7.22
2022-12-05T14:50:52.509Z,5.38
2022-12-05T14:53:20.919Z,4.32
2022-12-05T14:56:01.646Z,5.10
2022-12-05T14:59:05.930Z,4.55
2022-12-05T15:01:46.583Z,11.43
2022-12-05T15:04:21.736Z,5.25
2022-12-05T15:07:01.048Z,7.05
2022-12-05T15:09:59.038Z,5.43
2022-12-05T15:12:49.906Z,5.68
2022-12-05T15:15:37.390Z,4.05
2022-12-05T15:18:21.866Z,5.18
2022-12-05T15:21:03.342Z,5.95
2022-12-05T15:23:38.558Z,5.43
2022-12-05T15:26:45.069Z,4.47
2022-12-05T15:29:04.942Z,4.90
2022-12-05T15:31:38.334Z,5.63
2022-12-05T15:34:25.155Z,6.88
2022-12-05T15:37:13.219Z,4.88
2022-12-05T15:40:00.056Z,5.28
2022-12-05T15:42:36.046Z,4.40
2022-12-05T15:45:16.387Z,4.47
2022-12-05T15:47:48.458Z,4.28
2022-12-05T15:50:24.105Z,4.50
2022-12-05T15:53:04.307Z,4.13
2022-12-05T15:55:50.164Z,4.15
2022-12-05T15:58:35.235Z,4.65
2022-12-05T16:01:25.777Z,5.05
2022-12-05T16:04:09.739Z,5.13
2022-12-05T16:06:45.643Z,4.85
2022-12-05T16:09:22.355Z,5.88
2022-12-05T16:11:56.849Z,6.00
2022-12-05T16:17:22.105Z,6.05
2022-12-05T16:19:50.983Z,5.00
2022-12-05T16:22:25.773Z,5.60
2022-12-05T16:24:56.213Z,5.15
2022-12-05T16:27:36.013Z,5.00
2022-12-05T16:30:20.770Z,4.43
2022-12-05T16:32:58.525Z,5.45
2022-12-05T16:35:43.182Z,4.90
2022-12-05T16:38:18.145Z,4.20
2022-12-05T16:40:46.566Z,3.90
2022-12-05T16:43:33.086Z,4.20
2022-12-05T16:46:13.866Z,5.82
2022-12-05T16:48:44.787Z,37.20
2022-12-05T16:51:26.215Z,12.75
2022-12-05T16:53:56.563Z,20.95
2022-12-05T16:56:33.299Z,46.10
2022-12-05T16:59:06.871Z,54.17
2022-12-05T17:01:38.898Z,21.73
2022-12-05T17:04:11.499Z,48.40
2022-12-05T17:06:40.198Z,35.83
2022-12-05T17:09:08.277Z,23.75
2022-12-05T17:11:39.089Z,7.75
2022-12-05T17:14:11.858Z,6.88
2022-12-05T17:16:40.494Z,5.35
2022-12-05T17:19:10.519Z,5.40
2022-12-05T17:21:42.518Z,5.35
2022-12-05T17:24:18.593Z,5.72
2022-12-05T17:26:47.699Z,6.05
2022-12-05T17:29:15.734Z,6.28
2022-12-05T17:31:44.299Z,5.95
2022-12-05T17:34:18.579Z,5.70
2022-12-05T17:36:47.036Z,6.80
2022-12-05T17:39:15.105Z,7.72
2022-12-05T17:41:44.559Z,28.27
2022-12-05T17:44:14.622Z,9.25
2022-12-05T17:46:43.826Z,5.40
2022-12-05T17:49:17.008Z,24.77
2022-12-05T17:52:19.933Z,6.05
2022-12-05T17:54:34.568Z,38.65
2022-12-05T17:57:03.030Z,6.85
2022-12-05T17:59:31.012Z,7.55
2022-12-05T18:01:59.312Z,21.17
2022-12-05T18:04:27.395Z,46.33
2022-12-05T18:06:56.013Z,7.18
2022-12-05T18:09:24.382Z,5.85
2022-12-05T18:11:53.388Z,5.53
2022-12-05T18:14:21.399Z,5.20
2022-12-05T18:16:50.185Z,6.20
2022-12-05T18:19:18.326Z,6.22
2022-12-05T18:24:19.842Z,5.78
2022-12-05T18:26:48.447Z,6.20
2022-12-05T18:29:16.551Z,5.25
2022-12-05T18:31:45.018Z,5.88
2022-12-05T18:34:13.157Z,6.25
2022-12-05T18:36:43.339Z,6.30
2022-12-05T18:39:17.343Z,6.28
2022-12-05T18:41:45.859Z,6.05
2022-12-05T18:44:13.909Z,6.53
2022-12-05T18:46:42.576Z,6.40
2022-12-05T18:49:13.558Z,5.55
2022-12-05T18:51:43.123Z,6.45
2022-12-05T18:54:11.289Z,6.28
2022-12-05T18:56:41.147Z,6.50
2022-12-05T18:59:15.058Z,6.60
2022-12-05T19:01:44.798Z,7.53
2022-12-05T19:04:15.405Z,7.50
2022-12-05T19:06:53.849Z,8.05
2022-12-05T19:09:25.280Z,7.25
2022-12-05T19:11:57.129Z,7.00
2022-12-05T19:14:26.508Z,7.47
2022-12-05T19:16:59.965Z,7.25
2022-12-05T19:19:29.331Z,8.98
2022-12-05T19:21:59.377Z,9.45
2022-12-05T19:24:27.479Z,9.50
2022-12-05T19:26:55.931Z,11.13
2022-12-05T19:29:24.163Z,9.95
2022-12-05T19:31:52.821Z,11.25
2022-12-05T19:34:21.145Z,11.35
2022-12-05T19:36:49.554Z,11.98
2022-12-05T19:39:23.713Z,11.00
2022-12-05T19:41:52.613Z,11.88
2022-12-05T19:44:22.120Z,13.32
2022-12-05T19:46:50.890Z,14.50
2022-12-05T19:49:19.645Z,15.30
2022-12-05T19:51:49.090Z,14.77
2022-12-05T19:54:22.341Z,15.50
2022-12-05T19:56:51.050Z,15.25
2022-12-05T19:59:19.685Z,17.20
2022-12-05T20:01:49.630Z,16.77
2022-12-05T20:04:18.071Z,15.77
2022-12-05T20:06:49.424Z,16.05
2022-12-05T20:09:20.424Z,15.25
2022-12-05T20:11:55.437Z,18.08
2022-12-05T20:14:25.869Z,18.05
2022-12-05T20:16:55.435Z,17.92
2022-12-05T20:19:24.520Z,16.63
2022-12-05T20:21:55.649Z,17.00
2022-12-05T20:24:23.746Z,17.15
2022-12-05T20:26:53.186Z,17.80
2022-12-05T20:29:21.678Z,18.00
2022-12-05T20:31:53.028Z,18.85
2022-12-05T20:34:21.303Z,19.35
2022-12-05T20:36:49.728Z,19.20
2022-12-05T20:39:18.458Z,18.17
2022-12-05T20:41:47.012Z,18.13
2022-12-05T20:44:17.083Z,18.42
2022-12-05T20:46:46.027Z,18.98
2022-12-05T20:49:14.418Z,18.38
2022-12-05T20:51:44.778Z,17.60
2022-12-05T20:54:16.897Z,18.83
2022-12-05T20:56:46.053Z,18.70
2022-12-05T20:59:14.421Z,20.05
2022-12-05T21:01:43.015Z,19.40
2022-12-05T21:04:13.340Z,18.85
2022-12-05T21:06:44.140Z,18.38
2022-12-05T21:09:26.376Z,19.63
2022-12-05T21:11:56.350Z,18.10
2022-12-05T21:14:25.231Z,16.92
2022-12-05T21:16:53.828Z,18.95
2022-12-05T21:19:23.040Z,19.27
2022-12-05T21:21:54.220Z,18.75
2022-12-05T21:24:23.400Z,18.80
2022-12-05T21:26:52.624Z,17.40
2022-12-05T21:29:20.708Z,19.13
2022-12-05T21:31:51.975Z,18.48
2022-12-05T21:34:21.524Z,17.90
2022-12-05T21:36:50.258Z,17.50
2022-12-05T21:39:18.420Z,17.48
2022-12-05T21:41:47.040Z,16.67
2022-12-05T21:44:15.261Z,18.23
2022-12-05T21:46:43.942Z,18.33
2022-12-05T21:49:12.310Z,18.58
2022-12-05T21:51:40.900Z,17.83
2022-12-05T21:54:09.026Z,19.23
2022-12-05T21:56:37.680Z,18.40
2022-12-05T21:59:05.765Z,18.08
2022-12-05T22:01:34.722Z,19.02
2022-12-05T22:04:03.747Z,18.05
2022-12-05T22:06:34.310Z,18.15
2022-12-05T22:09:02.646Z,17.67
2022-12-05T22:11:31.435Z,18.40
2022-12-05T22:14:00.086Z,18.15
2022-12-05T22:16:33.061Z,18.05
2022-12-05T22:19:03.121Z,18.65
2022-12-05T22:21:34.764Z,19.50
2022-12-05T22:24:02.905Z,16.50
2022-12-05T22:26:32.009Z,16.98
2022-12-05T22:29:00.125Z,17.40
2022-12-05T22:31:29.994Z,16.77
2022-12-05T22:33:58.750Z,17.20
2022-12-05T22:36:27.286Z,18.83
2022-12-05T22:38:55.478Z,16.75
2022-12-05T22:41:26.929Z,17.25
2022-12-05T22:44:00.321Z,18.58
2022-12-05T22:46:29.343Z,19.77
2022-12-05T22:48:59.116Z,17.75
2022-12-05T22:51:28.059Z,16.58
2022-12-05T22:53:56.663Z,19.35
2022-12-05T22:56:28.551Z,18.95
2022-12-05T22:59:01.472Z,19.13
2022-12-05T23:01:35.166Z,18.17
2022-12-05T23:04:09.819Z,19.13
2022-12-05T23:06:39.372Z,18.30
2022-12-05T23:09:09.595Z,19.05
2022-12-05T23:11:38.400Z,18.63
2022-12-05T23:14:08.491Z,19.33
2022-12-05T23:16:37.680Z,18.85
2022-12-05T23:19:06.425Z,18.58
2022-12-05T23:21:39.884Z,18.83
2022-12-05T23:24:10.559Z,19.42
2022-12-05T23:26:44.708Z,19.27
2022-12-05T23:31:43.074Z,19.13
2022-12-05T23:34:12.770Z,18.58
2022-12-05T23:36:41.155Z,19.02
2022-12-05T23:39:09.429Z,19.05
2022-12-05T23:41:38.027Z,19.02
2022-12-05T23:44:06.098Z,18.58
2022-12-05T23:46:35.887Z,18.42
2022-12-05T23:49:04.253Z,20.23
2022-12-05T23:51:34.244Z,18.13
2022-12-05T23:54:02.795Z,22.17
2022-12-05T23:56:33.675Z,18.63
2022-12-05T23:59:03.574Z,19.55
